Time;durP1;ratioP1;P1;durP2;ratioP2;P2;SDS_P1;SDS_P2;PMS_P1;PMS_P2;Temp;Humidity;BMP_temperature;BMP_pressure;BME280_temperature;BME280_humidity;BME280_pressure;Samples;Min_cycle;Max_cycle;Signal;HPM_P1;HPM_P2
2023/01/03 00:01:19;;;;;;;0.80;0.80;;;;;;;-3.97;84.47;99280.03;4902728;29;20064;-85
2023/01/03 00:03:46;;;;;;;0.77;0.77;;;;;;;-3.94;84.28;99277.09;4881710;29;20052;-86
2023/01/03 00:06:20;;;;;;;0.75;0.75;;;;;;;-3.89;84.07;99271.38;4899624;29;20531;-87
2023/01/03 00:08:47;;;;;;;0.70;0.70;;;;;;;-3.93;83.98;99259.44;4902500;29;20048;-86
2023/01/03 00:12:22;;;;;;;0.70;0.70;;;;;;;-3.86;83.93;99270.25;4900425;29;20059;-86
2023/01/03 00:14:08;;;;;;;0.80;0.80;;;;;;;-3.82;83.66;99268.97;4885327;29;20084;-87
2023/01/03 00:16:36;;;;;;;0.60;0.60;;;;;;;-3.81;83.39;99268.00;4900621;29;20045;-85
2023/01/03 00:19:11;;;;;;;0.80;0.80;;;;;;;-3.81;83.69;99262.75;4880656;29;20049;-86
2023/01/03 00:21:40;;;;;;;0.75;0.75;;;;;;;-3.82;83.54;99251.38;4897791;29;20060;-86
2023/01/03 00:24:08;;;;;;;0.60;0.60;;;;;;;-3.79;83.52;99250.25;4879992;29;20048;-86
2023/01/03 00:26:35;;;;;;;0.77;0.77;;;;;;;-3.78;83.65;99251.88;4880787;29;20063;-86
2023/01/03 00:29:03;;;;;;;0.85;0.85;;;;;;;-3.87;83.60;99226.38;4898628;29;20100;-85
2023/01/03 00:31:34;;;;;;;0.98;0.98;;;;;;;-3.78;83.58;99241.34;4882471;29;20066;-87
2023/01/03 00:34:01;;;;;;;0.68;0.68;;;;;;;-3.78;83.16;99251.88;4901493;29;20516;-87
2023/01/03 00:36:28;;;;;;;0.82;0.82;;;;;;;-3.76;83.42;99250.78;4882401;29;20052;-86
2023/01/03 00:38:55;;;;;;;0.80;0.80;;;;;;;-3.76;83.43;99255.22;4881917;29;20180;-84
2023/01/03 00:41:23;;;;;;;0.77;0.77;;;;;;;-3.74;83.44;99248.81;4869371;29;20056;-85
2023/01/03 00:43:50;;;;;;;0.77;0.77;;;;;;;-3.74;83.25;99240.09;4880808;29;20052;-85
2023/01/03 00:46:18;;;;;;;0.80;0.80;;;;;;;-3.73;83.19;99234.63;4897083;29;20048;-84
2023/01/03 00:48:46;;;;;;;0.75;0.75;;;;;;;-3.67;83.05;99237.66;4897615;29;20052;-85
2023/01/03 00:51:34;;;;;;;0.63;0.63;;;;;;;-3.64;82.71;99230.31;4879592;29;20056;-83
2023/01/03 00:54:02;;;;;;;0.70;0.70;;;;;;;-3.68;83.00;99226.28;4895676;29;20060;-85
2023/01/03 00:56:33;;;;;;;0.70;0.70;;;;;;;-3.71;83.24;99216.03;4897224;29;20143;-86
2023/01/03 00:59:00;;;;;;;0.73;0.73;;;;;;;-3.64;83.30;99218.94;4898276;29;20048;-82
2023/01/03 01:01:32;;;;;;;0.65;0.65;;;;;;;-3.61;83.04;99211.53;4914791;29;20060;-85
2023/01/03 01:04:15;;;;;;;;;;;;;;;-3.60;82.82;99207.09;4885099;29;20083;-86
2023/01/03 01:06:57;;;;;;;0.80;0.80;;;;;;;-3.60;82.78;99218.47;4899109;29;19926;-86
2023/01/03 01:09:34;;;;;;;0.70;0.70;;;;;;;-3.60;82.66;99204.44;4899912;29;20107;-85
2023/01/03 01:12:02;;;;;;;0.70;0.70;;;;;;;-3.58;82.57;99205.13;4883401;29;20054;-85
2023/01/03 01:14:32;;;;;;;0.60;0.60;;;;;;;-3.60;82.49;99200.00;4914983;29;20052;-86
2023/01/03 01:17:03;;;;;;;0.70;0.70;;;;;;;-3.57;82.67;99191.81;4899241;29;20048;-86
2023/01/03 01:19:36;;;;;;;0.90;0.90;;;;;;;-3.50;82.34;99184.09;4899478;29;20111;-86
2023/01/03 01:22:04;;;;;;;0.80;0.80;;;;;;;-3.52;82.30;99162.31;4916276;29;20064;-86
2023/01/03 01:24:32;;;;;;;0.68;0.68;;;;;;;-3.46;82.60;99164.34;4917395;29;20059;-84
2023/01/03 01:26:59;;;;;;;0.60;0.60;;;;;;;-3.51;82.87;99151.63;4900547;29;20142;-85
2023/01/03 01:29:26;;;;;;;0.80;0.80;;;;;;;-3.46;82.93;99152.97;4917722;29;20091;-85
2023/01/03 01:31:53;;;;;;;0.88;0.88;;;;;;;-3.45;82.88;99157.25;4918011;29;20515;-86
2023/01/03 01:34:21;;;;;;;0.73;0.73;;;;;;;-3.50;82.94;99147.97;4918248;29;20062;-85
2023/01/03 01:36:48;;;;;;;0.85;0.85;;;;;;;-3.47;83.13;99138.09;4907067;29;20048;-84
2023/01/03 01:39:24;;;;;;;0.82;0.82;;;;;;;-3.41;83.10;99127.78;4925761;29;20048;-86
2023/01/03 01:44:54;;;;;;;0.60;0.60;;;;;;;-3.39;82.50;99117.06;4917555;29;20056;-85
2023/01/03 01:47:26;;;;;;;0.60;0.60;;;;;;;-3.41;81.94;99114.59;4917325;29;20063;-85
2023/01/03 01:50:02;;;;;;;0.90;0.90;;;;;;;-3.39;81.85;99109.16;4917246;29;20111;-84
2023/01/03 01:52:32;;;;;;;0.80;0.80;;;;;;;-3.38;81.87;99100.25;4900245;29;20055;-86
2023/01/03 01:55:01;;;;;;;0.63;0.63;;;;;;;-3.39;81.76;99094.16;4917729;29;20048;-86
2023/01/03 01:57:29;;;;;;;0.60;0.60;;;;;;;-3.35;82.04;99097.31;4917459;29;20059;-85
2023/01/03 01:59:57;;;;;;;0.60;0.60;;;;;;;-3.32;81.81;99089.94;4900299;29;20048;-85
2023/01/03 02:02:24;;;;;;;0.63;0.63;;;;;;;-3.27;81.92;99085.03;4916576;29;20055;-85
2023/01/03 02:04:53;;;;;;;0.70;0.70;;;;;;;-3.28;81.64;99072.78;4918739;29;20459;-84
2023/01/03 02:07:21;;;;;;;0.70;0.70;;;;;;;-3.21;81.73;99073.00;4900137;29;20063;-85
2023/01/03 02:09:50;;;;;;;0.70;0.70;;;;;;;-3.22;81.53;99073.16;4917128;29;20490;-85
2023/01/03 02:15:43;;;;;;;;;;;;;;;-3.21;80.73;99054.53;4903032;29;20048;-85
2023/01/03 02:18:11;;;;;;;0.50;0.50;;;;;;;-3.31;80.80;99048.53;4899793;29;20030;-83
2023/01/03 02:21:02;;;;;;;0.80;0.80;;;;;;;-3.30;80.82;99050.16;4916431;29;20563;-83
2023/01/03 02:23:53;;;;;;;0.73;0.73;;;;;;;-3.32;80.96;99055.63;4894604;29;20086;-84
2023/01/03 02:27:00;;;;;;;0.65;0.65;;;;;;;-3.32;81.13;99060.91;4916265;29;20430;-82
2023/01/03 02:29:33;;;;;;;0.73;0.73;;;;;;;-3.35;80.71;99063.00;4899481;29;20918;-86
2023/01/03 02:32:06;;;;;;;0.80;0.80;;;;;;;-3.36;80.98;99053.44;4917522;29;20063;-85
2023/01/03 02:34:42;;;;;;;0.73;0.73;;;;;;;-3.52;81.47;99052.34;4916590;29;20147;-86
2023/01/03 02:37:15;;;;;;;0.90;0.90;;;;;;;-3.65;82.91;99041.31;4916866;29;20148;-87
2023/01/03 02:40:07;;;;;;;0.90;0.90;;;;;;;-3.69;84.10;99033.91;4917113;29;20538;-86
2023/01/03 02:43:04;;;;;;;0.70;0.70;;;;;;;-3.69;84.86;99026.81;4900645;29;20435;-86
2023/01/03 02:45:34;;;;;;;0.90;0.90;;;;;;;-3.75;85.48;99019.50;4899238;29;20063;-85
2023/01/03 02:48:08;;;;;;;0.80;0.80;;;;;;;-3.84;86.41;99015.16;4916886;29;20507;-86
2023/01/03 02:50:44;;;;;;;0.68;0.68;;;;;;;-3.82;87.49;99003.47;4896528;29;20491;-87
2023/01/03 02:53:15;;;;;;;0.57;0.57;;;;;;;-3.77;88.13;99000.38;4897395;29;20052;-85
2023/01/03 02:55:42;;;;;;;0.80;0.80;;;;;;;-3.79;88.55;98987.31;4911419;29;20481;-86
2023/01/03 02:58:30;;;;;;;0.60;0.60;;;;;;;-3.83;89.10;98982.50;4911771;29;20055;-86
2023/01/03 03:01:00;;;;;;;0.70;0.70;;;;;;;-3.89;89.64;98980.50;4927497;29;20155;-85
2023/01/03 03:03:31;;;;;;;0.73;0.73;;;;;;;-3.88;90.33;98972.41;4933618;29;20126;-84
2023/01/03 03:06:11;;;;;;;0.82;0.82;;;;;;;-3.79;90.69;98970.69;4914333;29;20072;-84
2023/01/03 03:08:42;;;;;;;0.70;0.70;;;;;;;-3.77;90.84;98955.53;4918668;29;20593;-83
2023/01/03 03:14:06;;;;;;;0.90;0.90;;;;;;;-3.77;91.45;98960.81;4932887;29;20052;-84
2023/01/03 03:16:49;;;;;;;0.82;0.82;;;;;;;-3.80;91.76;98945.28;4931135;29;20146;-85
2023/01/03 03:25:34;;;;;;;0.63;0.63;;;;;;;-3.85;92.53;98934.38;4927186;29;20062;-83
2023/01/03 03:31:00;;;;;;;0.90;0.90;;;;;;;-3.82;92.94;98918.22;4936224;29;20159;-86
2023/01/03 03:33:29;;;;;;;0.70;0.70;;;;;;;-3.84;93.04;98902.56;4933615;29;20075;-85
2023/01/03 03:36:03;;;;;;;0.80;0.80;;;;;;;-3.75;93.28;98908.72;4917738;29;20083;-88
2023/01/03 03:38:35;;;;;;;0.77;0.77;;;;;;;-3.70;93.62;98901.16;4918410;29;20407;-85
2023/01/03 03:47:38;;;;;;;0.70;0.70;;;;;;;-3.60;94.24;98870.22;4928363;29;20502;-84
2023/01/03 03:50:33;;;;;;;0.80;0.80;;;;;;;-3.57;94.13;98864.66;4931106;29;20463;-84
2023/01/03 03:53:04;;;;;;;0.85;0.85;;;;;;;-3.55;94.01;98857.38;4909329;29;20400;-85
2023/01/03 03:55:41;;;;;;;0.80;0.80;;;;;;;-3.49;94.41;98842.75;4913425;29;20052;-85
2023/01/03 03:58:21;;;;;;;0.73;0.73;;;;;;;-3.43;94.53;98846.56;4900437;29;20114;-88
2023/01/03 04:00:50;;;;;;;0.80;0.80;;;;;;;-3.46;94.62;98831.88;4934071;29;20086;-83
2023/01/03 04:03:18;;;;;;;0.70;0.70;;;;;;;-3.41;94.77;98826.13;4915972;29;20519;-84
2023/01/03 04:05:49;;;;;;;0.70;0.70;;;;;;;-3.37;94.72;98814.25;4933426;29;20479;-86
2023/01/03 04:08:16;;;;;;;0.70;0.70;;;;;;;-3.30;95.05;98825.81;4934234;29;20051;-81
2023/01/03 04:10:44;;;;;;;0.60;0.60;;;;;;;-3.32;95.00;98798.75;4933291;29;20048;-84
2023/01/03 04:13:11;;;;;;;0.90;0.90;;;;;;;-3.30;95.00;98802.06;4933440;29;20063;-82
2023/01/03 04:15:38;;;;;;;0.60;0.60;;;;;;;-3.35;95.15;98784.06;4916607;29;20058;-82
2023/01/03 04:18:05;;;;;;;0.90;0.90;;;;;;;-3.25;95.42;98794.50;4933804;29;20586;-82
2023/01/03 04:20:32;;;;;;;0.95;0.95;;;;;;;-3.25;95.23;98777.84;4933445;29;20062;-82
2023/01/03 04:23:00;;;;;;;0.70;0.70;;;;;;;-3.34;95.29;98761.16;4933606;29;20062;-83
2023/01/03 04:25:27;;;;;;;0.70;0.70;;;;;;;-3.24;95.53;98768.94;4933424;29;20062;-83
2023/01/03 04:27:54;;;;;;;0.70;0.70;;;;;;;-3.21;95.61;98761.53;4933391;29;20740;-84
2023/01/03 04:30:21;;;;;;;0.70;0.70;;;;;;;-3.16;95.87;98751.31;4932042;29;20497;-83
2023/01/03 04:32:48;;;;;;;0.80;0.80;;;;;;;-3.20;95.74;98755.25;4933134;29;20134;-83
2023/01/03 04:35:15;;;;;;;0.70;0.70;;;;;;;-3.22;95.94;98746.66;4933284;29;20065;-83
2023/01/03 04:37:42;;;;;;;0.60;0.60;;;;;;;-3.23;95.92;98731.81;4934590;29;20051;-83
2023/01/03 04:40:10;;;;;;;0.70;0.70;;;;;;;-3.21;95.90;98721.13;4917290;29;20134;-83
2023/01/03 04:45:24;;;;;;;0.70;0.70;;;;;;;-3.17;96.12;98715.31;4932937;29;20059;-84
2023/01/03 04:47:52;;;;;;;0.90;0.90;;;;;;;-3.22;95.95;98693.88;4933162;29;20400;-84
2023/01/03 04:50:19;;;;;;;0.80;0.80;;;;;;;-3.19;96.15;98688.28;4916023;29;20071;-82
2023/01/03 04:52:46;;;;;;;0.80;0.80;;;;;;;-3.19;96.00;98682.16;4932972;29;20052;-84
2023/01/03 04:55:13;;;;;;;0.82;0.82;;;;;;;-3.20;96.19;98675.25;4932909;29;20056;-83
2023/01/03 04:57:40;;;;;;;0.63;0.63;;;;;;;-3.29;96.39;98655.94;4935441;29;20578;-82
2023/01/03 05:00:08;;;;;;;0.90;0.90;;;;;;;-3.27;96.33;98665.34;4937043;29;20063;-83
2023/01/03 05:02:35;;;;;;;0.80;0.80;;;;;;;-3.24;96.63;98655.44;4935711;29;20134;-82
2023/01/03 05:05:02;;;;;;;0.80;0.80;;;;;;;-3.33;96.58;98647.53;4919630;29;20530;-82
2023/01/03 05:07:29;;;;;;;0.60;0.60;;;;;;;-3.36;96.53;98639.94;4936486;29;20099;-83
2023/01/03 05:09:56;;;;;;;0.70;0.70;;;;;;;-3.36;96.55;98644.41;4936742;29;20055;-84
2023/01/03 05:12:25;;;;;;;0.70;0.70;;;;;;;-3.36;96.81;98652.31;4936507;29;20052;-84
2023/01/03 05:14:52;;;;;;;0.70;0.70;;;;;;;-3.32;96.76;98645.69;4919893;29;20079;-85
2023/01/03 05:17:20;;;;;;;0.70;0.70;;;;;;;-3.34;96.70;98643.25;4936300;29;20142;-84
2023/01/03 05:28:05;;;;;;;0.90;0.90;;;;;;;-3.37;97.31;98597.88;4923675;29;20092;-83
2023/01/03 05:30:41;;;;;;;0.60;0.60;;;;;;;-3.39;97.28;98582.22;4914675;29;20060;-83
2023/01/03 05:33:08;;;;;;;0.80;0.80;;;;;;;-3.31;97.41;98578.75;4920712;29;20450;-83
2023/01/03 05:35:35;;;;;;;0.85;0.85;;;;;;;-3.33;97.62;98576.25;4922222;29;20048;-84
2023/01/03 05:38:05;;;;;;;0.50;0.50;;;;;;;-3.34;97.74;98586.97;4897657;29;20078;-83
2023/01/03 05:40:32;;;;;;;0.70;0.70;;;;;;;-3.35;97.98;98577.41;4917510;29;20075;-82
2023/01/03 05:43:07;;;;;;;0.80;0.80;;;;;;;-3.36;97.92;98579.25;4919097;29;20404;-82
2023/01/03 05:45:38;;;;;;;0.80;0.80;;;;;;;-3.30;98.17;98589.13;4914197;29;20067;-83
2023/01/03 05:48:06;;;;;;;0.80;0.80;;;;;;;-3.30;98.33;98575.09;4921042;29;20051;-83
2023/01/03 05:50:33;;;;;;;0.75;0.75;;;;;;;-3.29;98.77;98572.31;4921755;29;20048;-84
2023/01/03 05:53:00;;;;;;;0.80;0.80;;;;;;;-3.22;98.73;98569.81;4918567;29;20048;-84
2023/01/03 05:55:27;;;;;;;0.90;0.90;;;;;;;-3.29;98.77;98548.56;4922740;29;20110;-83
2023/01/03 05:57:54;;;;;;;0.75;0.75;;;;;;;-3.25;98.68;98564.88;4937673;29;20406;-86
2023/01/03 06:00:21;;;;;;;0.60;0.60;;;;;;;-3.25;98.89;98549.03;4933282;29;20059;-87
2023/01/03 06:02:51;;;;;;;0.80;0.80;;;;;;;-3.22;98.81;98540.78;4934958;29;20399;-87
2023/01/03 06:05:18;;;;;;;0.77;0.77;;;;;;;-3.16;99.17;98521.66;4932415;29;20525;-85
2023/01/03 06:07:45;;;;;;;0.70;0.70;;;;;;;-3.16;99.03;98508.44;4944299;29;20400;-87
2023/01/03 06:10:13;;;;;;;0.70;0.70;;;;;;;-3.19;99.09;98511.44;4918969;29;20102;-87
2023/01/03 06:13:06;;;;;;;0.60;0.60;;;;;;;-3.12;98.98;98508.94;4909375;29;20411;-86
2023/01/03 06:15:34;;;;;;;0.80;0.80;;;;;;;-3.30;98.99;98480.91;4921636;29;20059;-83
2023/01/03 06:18:02;;;;;;;0.70;0.70;;;;;;;-3.17;99.30;98508.59;4901971;29;20044;-84
2023/01/03 06:20:31;;;;;;;0.73;0.73;;;;;;;-3.16;99.30;98487.34;4933378;29;20055;-85
2023/01/03 06:23:01;;;;;;;0.65;0.65;;;;;;;-3.18;99.37;98484.03;4911076;29;20082;-84
2023/01/03 06:25:31;;;;;;;0.80;0.80;;;;;;;-3.16;99.32;98471.50;4919068;29;20055;-86
2023/01/03 06:28:05;;;;;;;1.00;1.00;;;;;;;-3.00;99.46;98485.63;4914455;29;20134;-83
2023/01/03 06:30:33;;;;;;;0.80;0.80;;;;;;;-3.00;99.61;98452.13;4930468;29;20538;-88
2023/01/03 06:33:01;;;;;;;0.77;0.77;;;;;;;-2.92;99.59;98430.97;4925422;29;20477;-87
2023/01/03 06:35:30;;;;;;;0.85;0.85;;;;;;;-2.95;99.41;98423.38;4898020;29;20061;-88
2023/01/03 06:37:58;;;;;;;0.70;0.70;;;;;;;-2.95;99.36;98447.16;4905418;29;20074;-86
2023/01/03 06:40:29;;;;;;;0.70;0.70;;;;;;;-3.03;99.49;98438.47;4913623;29;20149;-85
2023/01/03 06:43:10;;;;;;;0.70;0.70;;;;;;;-2.99;99.40;98437.09;4917167;29;20793;-82
2023/01/03 06:54:22;;;;;;;0.80;0.80;;;;;;;-2.99;99.96;98435.28;4872227;29;20078;-84
2023/01/03 06:56:50;;;;;;;1.00;1.00;;;;;;;-3.12;100.00;98400.69;4880324;29;20090;-84
2023/01/03 06:59:18;;;;;;;0.93;0.93;;;;;;;-3.03;100.00;98418.16;4891358;29;20652;-85
2023/01/03 07:01:48;;;;;;;0.80;0.80;;;;;;;-2.95;100.00;98412.81;4891298;29;20077;-83
2023/01/03 07:04:15;;;;;;;0.73;0.73;;;;;;;-3.03;100.00;98402.31;4874830;29;20569;-84
2023/01/03 07:06:43;;;;;;;1.00;1.00;;;;;;;-2.95;100.00;98381.16;4884147;29;20088;-84
2023/01/03 07:09:11;;;;;;;0.95;0.95;;;;;;;-2.85;100.00;98391.50;4872735;29;20049;-83
2023/01/03 07:11:39;;;;;;;0.70;0.70;;;;;;;-2.81;100.00;98392.81;4872600;29;20053;-84
2023/01/03 07:14:07;;;;;;;0.77;0.77;;;;;;;-2.86;100.00;98372.19;4873105;29;20061;-85
2023/01/03 07:16:37;;;;;;;0.80;0.80;;;;;;;-2.75;100.00;98386.81;4843567;29;20049;-84
2023/01/03 07:19:05;;;;;;;0.75;0.75;;;;;;;-2.80;100.00;98383.88;4903120;29;20198;-84
2023/01/03 07:21:34;;;;;;;0.70;0.70;;;;;;;-2.78;100.00;98366.03;4874290;29;20048;-86
2023/01/03 07:24:03;;;;;;;0.70;0.70;;;;;;;-2.67;100.00;98370.09;4872399;29;20053;-84
2023/01/03 07:26:33;;;;;;;0.70;0.70;;;;;;;-2.76;100.00;98368.47;4868488;29;20040;-83
2023/01/03 07:29:03;;;;;;;0.73;0.73;;;;;;;-2.65;100.00;98363.63;4930242;29;20056;-83
2023/01/03 07:31:31;;;;;;;0.70;0.70;;;;;;;-2.59;100.00;98356.00;4926909;29;20507;-84
2023/01/03 07:33:59;;;;;;;0.80;0.80;;;;;;;-2.55;100.00;98352.00;4930179;29;20514;-82
2023/01/03 07:36:27;;;;;;;0.70;0.70;;;;;;;-2.54;100.00;98351.81;4916924;29;20096;-84
2023/01/03 07:38:57;;;;;;;0.93;0.93;;;;;;;-2.46;100.00;98353.56;4903945;29;20051;-83
2023/01/03 07:43:35;;;;;;;0.70;0.70;;;;;;;-2.47;100.00;98344.03;4894766;29;20052;-84
2023/01/03 07:44:18;;;;;;;0.82;0.82;;;;;;;-2.46;100.00;98345.66;4914677;29;20506;-83
2023/01/03 07:46:45;;;;;;;0.70;0.70;;;;;;;-2.44;100.00;98339.19;4929739;29;20043;-82
2023/01/03 07:49:13;;;;;;;0.85;0.85;;;;;;;-2.41;100.00;98333.53;4896486;29;20076;-83
2023/01/03 07:51:41;;;;;;;0.82;0.82;;;;;;;-2.44;100.00;98333.09;4895348;29;20106;-82
2023/01/03 07:54:15;;;;;;;0.70;0.70;;;;;;;-2.42;100.00;98331.09;4893677;29;20056;-84
2023/01/03 07:56:52;;;;;;;0.80;0.80;;;;;;;-2.52;100.00;98310.19;4896023;29;20094;-86
2023/01/03 07:59:19;;;;;;;0.90;0.90;;;;;;;-2.37;100.00;98312.88;4909965;29;20052;-84
2023/01/03 08:01:47;;;;;;;0.80;0.80;;;;;;;-2.36;100.00;98309.22;4930497;29;20055;-83
2023/01/03 08:04:15;;;;;;;0.90;0.90;;;;;;;-2.43;100.00;98297.72;4932745;29;20146;-87
2023/01/03 08:06:44;;;;;;;1.00;1.00;;;;;;;-2.37;100.00;98304.94;4924348;29;20067;-85
2023/01/03 08:14:43;;;;;;;0.70;0.70;;;;;;;-2.37;100.00;98270.59;4911589;29;20056;-83
2023/01/03 08:17:12;;;;;;;0.98;0.98;;;;;;;-2.26;100.00;98280.72;4919767;29;20095;-85
2023/01/03 08:19:40;;;;;;;0.95;0.95;;;;;;;-2.29;100.00;98262.59;4915326;29;20126;-85
2023/01/03 08:22:11;;;;;;;1.00;1.00;;;;;;;-2.35;100.00;98239.53;4920307;29;20082;-85
2023/01/03 08:24:42;;;;;;;0.80;0.80;;;;;;;-2.35;100.00;98225.50;4920568;29;20396;-84
2023/01/03 08:27:09;;;;;;;0.80;0.80;;;;;;;-2.23;100.00;98238.09;4916646;29;20131;-85
2023/01/03 08:29:36;;;;;;;0.85;0.85;;;;;;;-2.24;100.00;98233.78;4887413;29;20365;-85
2023/01/03 08:32:04;;;;;;;0.85;0.85;;;;;;;-2.19;100.00;98226.13;4915982;29;20052;-85
2023/01/03 08:34:35;;;;;;;0.90;0.90;;;;;;;-2.25;100.00;98218.94;4883049;29;20056;-84
2023/01/03 08:37:09;;;;;;;1.00;1.00;;;;;;;-2.29;100.00;98206.25;4898059;29;20083;-85
2023/01/03 08:39:47;;;;;;;0.90;0.90;;;;;;;-2.28;100.00;98200.81;4897940;29;20420;-85
2023/01/03 08:42:19;;;;;;;0.90;0.90;;;;;;;-2.14;100.00;98200.97;4897906;29;20055;-85
2023/01/03 08:44:48;;;;;;;0.85;0.85;;;;;;;-2.20;100.00;98191.97;4913918;29;20095;-84
2023/01/03 08:47:19;;;;;;;0.82;0.82;;;;;;;-2.12;100.00;98198.97;4899171;29;20048;-85
2023/01/03 08:49:46;;;;;;;0.93;0.93;;;;;;;-2.01;100.00;98195.84;4914283;29;20495;-85
2023/01/03 08:52:13;;;;;;;0.90;0.90;;;;;;;-1.97;100.00;98195.31;4914159;29;20048;-86
2023/01/03 08:54:40;;;;;;;0.90;0.90;;;;;;;-2.02;100.00;98170.44;4914038;29;20052;-84
2023/01/03 08:57:07;;;;;;;0.80;0.80;;;;;;;-1.99;100.00;98164.75;4914129;29;20224;-85
2023/01/03 08:59:34;;;;;;;0.80;0.80;;;;;;;-1.88;100.00;98171.41;4897028;29;20060;-85
2023/01/03 09:02:01;;;;;;;0.77;0.77;;;;;;;-1.83;100.00;98171.66;4897797;29;20048;-85
2023/01/03 09:04:29;;;;;;;0.70;0.70;;;;;;;-1.84;100.00;98157.63;4915809;29;20055;-85
2023/01/03 09:06:56;;;;;;;0.90;0.90;;;;;;;-1.90;100.00;98149.59;4914732;29;20510;-83
2023/01/03 09:09:23;;;;;;;0.70;0.70;;;;;;;-1.93;100.00;98161.38;4882351;29;20507;-85
2023/01/03 09:11:50;;;;;;;0.77;0.77;;;;;;;-1.83;100.00;98150.50;4914092;29;20091;-84
2023/01/03 09:14:18;;;;;;;0.80;0.80;;;;;;;-1.78;100.00;98142.81;4914578;29;20391;-84
2023/01/03 09:16:45;;;;;;;0.60;0.60;;;;;;;-1.82;100.00;98133.66;4897804;29;20058;-85
2023/01/03 09:19:15;;;;;;;0.90;0.90;;;;;;;-1.77;100.00;98137.38;4914330;29;20591;-84
2023/01/03 09:21:42;;;;;;;0.80;0.80;;;;;;;-1.85;100.00;98131.34;4901180;29;20064;-86
2023/01/03 09:24:09;;;;;;;1.00;1.00;;;;;;;-1.85;100.00;98111.03;4917225;29;20052;-85
2023/01/03 09:26:36;;;;;;;0.85;0.85;;;;;;;-1.73;100.00;98121.09;4898630;29;20119;-84
2023/01/03 09:29:04;;;;;;;1.00;1.00;;;;;;;-1.73;100.00;98110.53;4882168;29;20285;-85
2023/01/03 09:31:33;;;;;;;0.90;0.90;;;;;;;-1.66;100.00;98114.06;4912959;29;20059;-84
2023/01/03 09:34:03;;;;;;;0.80;0.80;;;;;;;-1.61;100.00;98106.38;4914450;29;20052;-85
2023/01/03 09:36:31;;;;;;;0.70;0.70;;;;;;;-1.64;100.00;98107.56;4914638;29;20054;-85
2023/01/03 09:38:58;;;;;;;0.80;0.80;;;;;;;-1.66;100.00;98091.06;4914291;29;20056;-84
2023/01/03 09:41:26;;;;;;;0.90;0.90;;;;;;;-1.68;100.00;98095.72;4913072;29;20078;-85
2023/01/03 09:43:59;;;;;;;0.80;0.80;;;;;;;-1.73;100.00;98081.44;4898603;29;20051;-86
2023/01/03 09:46:27;;;;;;;0.80;0.80;;;;;;;-1.72;100.00;98077.75;4874375;29;20095;-86
2023/01/03 09:48:55;;;;;;;1.00;1.00;;;;;;;-1.74;100.00;98077.97;4892482;29;20441;-85
2023/01/03 10:04:08;;;;;;;0.70;0.70;;;;;;;-1.60;100.00;98060.38;4907830;29;20056;-86
2023/01/03 10:07:13;;;;;;;0.98;0.98;;;;;;;-1.64;100.00;98037.97;4880800;29;20203;-86
2023/01/03 10:09:55;;;;;;;1.00;1.00;;;;;;;-1.58;100.00;98034.56;4862673;29;20057;-85
2023/01/03 10:12:31;;;;;;;1.00;1.00;;;;;;;-1.50;100.00;98034.41;4877780;29;20060;-86
2023/01/03 10:15:28;;;;;;;0.90;0.90;;;;;;;-1.48;100.00;98021.81;4877667;29;20049;-87
2023/01/03 10:18:29;;;;;;;0.70;0.70;;;;;;;-1.37;100.00;98029.25;4877893;29;20219;-87
2023/01/03 10:21:01;;;;;;;0.80;0.80;;;;;;;-1.39;100.00;98001.34;4846638;29;20053;-87
2023/01/03 10:23:29;;;;;;;0.75;0.75;;;;;;;-1.27;100.00;98001.59;4877458;29;20116;-86
2023/01/03 10:25:57;;;;;;;0.80;0.80;;;;;;;-1.25;100.00;98012.81;4877358;29;20049;-86
2023/01/03 10:28:25;;;;;;;0.70;0.70;;;;;;;-1.30;100.00;98024.00;4877193;29;20171;-87
2023/01/03 10:31:15;;;;;;;0.75;0.75;;;;;;;-1.25;100.00;98010.19;4875516;29;20495;-85
2023/01/03 10:33:44;;;;;;;0.80;0.80;;;;;;;-1.36;100.00;97983.22;4845005;29;20144;-91
2023/01/03 10:36:14;;;;;;;0.60;0.60;;;;;;;-1.27;100.00;97989.19;4542798;29;10001267;-90
2023/01/03 10:38:44;;;;;;;0.90;0.90;;;;;;;-1.17;100.00;97988.84;4863614;29;20053;-85
2023/01/03 10:41:40;;;;;;;0.75;0.75;;;;;;;-1.16;100.00;97979.91;4863068;29;20061;-89
2023/01/03 10:44:29;;;;;;;1.00;1.00;;;;;;;-1.13;100.00;97987.44;4871783;29;20060;-87
2023/01/03 10:47:09;;;;;;;0.82;0.82;;;;;;;-1.06;100.00;97990.13;4903849;29;20048;-92
2023/01/03 10:49:43;;;;;;;0.93;0.93;;;;;;;-1.11;100.00;97974.84;4910051;29;20055;-91
2023/01/03 10:52:37;;;;;;;0.90;0.90;;;;;;;-1.05;100.00;97973.25;4900126;29;20052;-91
2023/01/03 10:55:33;;;;;;;0.90;0.90;;;;;;;-1.04;100.00;97967.72;4907295;29;20076;-92
2023/01/03 10:58:29;;;;;;;0.90;0.90;;;;;;;-1.05;100.00;97962.66;4878468;29;20111;-93
2023/01/03 11:01:32;;;;;;;0.90;0.90;;;;;;;-1.01;100.00;97954.13;4915643;29;20080;-92
2023/01/03 11:04:13;;;;;;;1.00;1.00;;;;;;;-0.94;100.00;97954.97;4921580;29;20052;-92
2023/01/03 11:07:20;;;;;;;0.80;0.80;;;;;;;-0.90;100.00;97950.91;4899595;29;20174;-91
2023/01/03 11:09:51;;;;;;;0.77;0.77;;;;;;;-0.81;100.00;97942.78;4910998;29;20166;-89
2023/01/03 11:12:37;;;;;;;0.77;0.77;;;;;;;-0.73;100.00;97934.69;4883135;29;20044;-89
2023/01/03 11:15:38;;;;;;;0.70;0.70;;;;;;;-0.73;100.00;97930.19;4885062;29;20080;-91
2023/01/03 11:18:15;;;;;;;0.90;0.90;;;;;;;-0.70;100.00;97940.38;4905528;29;20054;-89
2023/01/03 11:21:06;;;;;;;1.00;1.00;;;;;;;-0.67;100.00;97944.47;4913232;29;20083;-91
2023/01/03 11:24:12;;;;;;;0.90;0.90;;;;;;;-0.59;100.00;97935.53;4893179;29;20047;-91
2023/01/03 11:27:04;;;;;;;0.93;0.93;;;;;;;-0.57;100.00;97930.84;4923720;29;20673;-90
2023/01/03 11:29:31;;;;;;;0.90;0.90;;;;;;;-0.55;100.00;97931.47;4893823;29;20159;-91
2023/01/03 11:32:41;;;;;;;1.10;1.10;;;;;;;-0.58;100.00;97930.03;4891307;29;20079;-90
2023/01/03 11:35:31;;;;;;;0.85;0.85;;;;;;;-0.63;100.00;97908.63;4907659;29;20055;-91
2023/01/03 11:38:18;;;;;;;0.90;0.90;;;;;;;-0.53;100.00;97927.59;4907854;29;20056;-92
2023/01/03 11:40:59;;;;;;;0.90;0.90;;;;;;;-0.57;100.00;97923.72;4870812;29;20083;-91
2023/01/03 11:43:49;;;;;;;0.88;0.88;;;;;;;-0.61;100.00;97921.66;4882639;29;20151;-90
2023/01/03 11:46:45;;;;;;;0.70;0.70;;;;;;;-0.62;100.00;97914.72;4892930;29;20510;-90
2023/01/03 11:49:28;;;;;;;0.80;0.80;;;;;;;-0.67;100.00;97910.03;4875240;29;20085;-90
2023/01/03 11:52:24;;;;;;;0.88;0.88;;;;;;;-0.62;100.00;97918.19;4932056;29;20059;-90
2023/01/03 11:55:24;;;;;;;0.90;0.90;;;;;;;-0.63;100.00;97908.63;4879211;29;20120;-89
2023/01/03 11:58:19;;;;;;;0.83;0.83;;;;;;;-0.72;100.00;97892.06;4911777;29;20076;-89
2023/01/03 12:00:57;;;;;;;1.00;1.00;;;;;;;-0.64;100.00;97901.66;4910092;29;20048;-90
2023/01/03 12:04:06;;;;;;;0.90;0.90;;;;;;;-0.62;100.00;97899.66;4916880;29;20060;-91
2023/01/03 12:06:42;;;;;;;0.88;0.88;;;;;;;-0.66;100.00;97882.50;4887619;29;20079;-91
2023/01/03 12:09:26;;;;;;;1.00;1.00;;;;;;;-0.65;100.00;97889.44;4904448;29;20116;-91
2023/01/03 12:11:59;;;;;;;0.80;0.80;;;;;;;-0.55;100.00;97889.88;4908920;29;20132;-89
2023/01/03 12:14:45;;;;;;;1.00;1.00;;;;;;;-0.60;100.00;97875.59;4868972;29;20045;-90
2023/01/03 12:17:23;;;;;;;0.80;0.80;;;;;;;-0.48;100.00;97882.75;4882600;29;20048;-89
2023/01/03 12:20:04;;;;;;;0.90;0.90;;;;;;;-0.44;100.00;97886.63;4892858;29;20059;-90
2023/01/03 12:22:41;;;;;;;0.73;0.73;;;;;;;-0.42;100.00;97890.94;4894909;29;20088;-89
2023/01/03 12:25:37;;;;;;;0.90;0.90;;;;;;;-0.44;100.00;97878.69;4895953;29;20044;-89
2023/01/03 12:28:13;;;;;;;0.70;0.70;;;;;;;-0.42;100.00;97878.47;4901597;29;20044;-88
2023/01/03 12:30:44;;;;;;;0.90;0.90;;;;;;;-0.39;100.00;97879.91;4889986;29;20055;-91
2023/01/03 12:33:33;;;;;;;0.80;0.80;;;;;;;-0.36;100.00;97876.84;4883225;29;20051;-88
2023/01/03 12:36:04;;;;;;;1.00;1.00;;;;;;;-0.39;100.00;97869.31;4911335;29;20422;-89
2023/01/03 12:38:37;;;;;;;0.80;0.80;;;;;;;-0.36;100.00;97860.94;4918162;29;20063;-91
2023/01/03 12:41:07;;;;;;;0.80;0.80;;;;;;;-0.20;100.00;97867.69;4924452;29;20542;-92
2023/01/03 12:44:14;;;;;;;0.95;0.95;;;;;;;-0.09;100.00;97856.47;4926786;29;20068;-93
2023/01/03 12:46:47;;;;;;;0.80;0.80;;;;;;;-0.06;100.00;97869.31;4901807;29;20085;-90
2023/01/03 12:49:38;;;;;;;0.82;0.82;;;;;;;0.00;100.00;97871.19;4915444;29;20044;-91
2023/01/03 12:52:22;;;;;;;0.88;0.88;;;;;;;0.03;100.00;97876.06;4912380;29;20055;-90
2023/01/03 12:55:18;;;;;;;0.90;0.90;;;;;;;0.14;100.00;97882.59;4902099;29;20060;-88
2023/01/03 12:58:07;;;;;;;0.70;0.70;;;;;;;0.18;100.00;97889.94;4916443;29;20533;-88
2023/01/03 13:00:57;;;;;;;0.80;0.80;;;;;;;0.12;100.00;97881.97;4910769;29;20542;-89
2023/01/03 13:03:48;;;;;;;0.80;0.80;;;;;;;0.24;100.00;97892.78;4916896;29;20523;-89